• Join FlightAware (Why Join?)
  • Login
  • US Flag 
10:14AM EST


 

Airport Tracker/Info


-or-


 

Live Flight TrackerFlight Track Log ✈ SVA1520 ✈ 09-Apr-2014 ✈ OETB / TUU - OEMA / MED

Flight Track Log - Related Links

Times and Time Zones

All times are in EDT time to prevent confusion due to time zone crossing. See the SVA1520 flight status page for this flight to view local times or setup timezone preferences in your user account.

Time Position Orientation Groundspeed Altitude Reporting Facility
EDT Latitude Longitude Course Direction KTS MPH feet Rate Location/Type
03:15AM 28.0902 36.8507 143° Southeast  Level Estimated
03:16AM 28.0213 36.9085 143° Southeast  Level Estimated
03:17AM 27.9524 36.9662 144° Southeast  Level Estimated
03:18AM 27.8834 37.0238 144° Southeast  Level Estimated
03:19AM 27.8145 37.0814 144° Southeast  Level Estimated
03:20AM 27.7455 37.1389 144° Southeast  Level Estimated
03:21AM 27.6765 37.1963 144° Southeast  Level Estimated
03:22AM 27.6075 37.2536 144° Southeast  Level Estimated
03:23AM 27.5385 37.3109 144° Southeast  Level Estimated
03:24AM 27.4694 37.3681 144° Southeast  Level Estimated
03:25AM 27.4003 37.4252 144° Southeast  Level Estimated
03:26AM 27.3312 37.4822 144° Southeast  Level Estimated
03:27AM 27.2621 37.5392 144° Southeast  Level Estimated
03:28AM 27.1929 37.5961 144° Southeast  Level Estimated
03:29AM 27.1237 37.6530 144° Southeast  Level Estimated
03:30AM 27.0545 37.7097 144° Southeast  Level Estimated
03:31AM 26.9853 37.7664 144° Southeast  Level Estimated
03:32AM 26.9160 37.8231 144° Southeast  Level Estimated
03:33AM 26.8468 37.8796 144° Southeast  Level Estimated
03:34AM 26.7775 37.9361 144° Southeast  Level Estimated
03:35AM 26.7082 37.9925 144° Southeast  Level Estimated
03:36AM 26.6388 38.0489 144° Southeast  Level Estimated
03:37AM 26.5694 38.1051 144° Southeast  Level Estimated
03:38AM 26.5001 38.1614 144° Southeast  Level Estimated
03:39AM 26.4307 38.2175 144° Southeast  Level Estimated
03:40AM 26.3612 38.2736 144° Southeast  Level Estimated
03:41AM 26.2918 38.3296 144° Southeast  Level Estimated
03:42AM 26.2223 38.3855 144° Southeast  Level Estimated
03:43AM 26.1528 38.4414 144° Southeast  Level Estimated
03:44AM 26.0833 38.4972 144° Southeast  Level Estimated
03:45AM 26.0138 38.5530 144° Southeast  Level Estimated
03:46AM 25.9442 38.6087 144° Southeast  Level Estimated
03:47AM 25.8746 38.6643 144° Southeast  Level Estimated
03:48AM 25.8050 38.7198 144° Southeast  Level Estimated
03:49AM 25.7354 38.7753 144° Southeast  Level Estimated
03:50AM 25.6658 38.8307 144° Southeast  Level Estimated
03:51AM 25.5961 38.8861 144° Southeast  Level Estimated
03:52AM 25.5264 38.9413 144° Southeast  Level Estimated
03:53AM 25.4567 38.9966 144° Southeast  Level Estimated
03:54AM 25.3870 39.0517 144° Southeast  Level Estimated
03:55AM 25.3172 39.1068 144° Southeast  Level Estimated
03:56AM 25.2475 39.1618 144° Southeast  Level Estimated
03:57AM 25.1777 39.2168 145° Southeast  Level Estimated
03:58AM 25.1079 39.2717 145° Southeast  Level Estimated
03:59AM 25.0380 39.3266 145° Southeast  Level Estimated
04:00AM 24.9682 39.3814 145° Southeast  Level Estimated
04:01AM 24.8983 39.4361 145° Southeast  Level Estimated
04:02AM 24.8284 39.4907 145° Southeast  Level Estimated
04:03AM 24.7585 39.5453 145° Southeast  Level Estimated
04:04AM 24.6886 39.5999 145° Southeast  Level Estimated
04:05AM 24.6187 39.6543 145° Southeast  Level Estimated
04:06AM 24.5534 39.7051 145° Southeast  Level Estimated
04:07AM 24.5534 39.7051 North  Level Estimated
04:08AM 24.5534 39.7051 North  Level Estimated
04:09AM 24.5534 39.7051 North  Level Estimated
04:10AM 24.5534 39.7051 North  Level Estimated
04:11AM 24.5534 39.7051 North  Level Estimated
04:12AM 24.5534 39.7051 North  Level Estimated